Time;durP1;ratioP1;P1;durP2;ratioP2;P2;SDS_P1;SDS_P2;PMS_P1;PMS_P2;Temp;Humidity;BMP_temperature;BMP_pressure;BME280_temperature;BME280_humidity;BME280_pressure;Samples;Min_cycle;Max_cycle;Signal;HPM_P1;HPM_P2
2021/04/08 00:00:49;;;;;;;;;;;;;;;;;;5052953;28;19912;-87
2021/04/08 00:03:15;;;;;;;;;;;;;;;;;;5079125;28;19974;-86
2021/04/08 00:05:40;;;;;;;;;;;;;;;;;;5052988;28;20003;-86
2021/04/08 00:08:05;;;;;;;;;;;;;;;;;;5052351;28;20325;-86
2021/04/08 00:10:30;;;;;;;;;;;;;;;;;;5036291;28;19909;-85
2021/04/08 00:12:56;;;;;;;;;;;;;;;;;;5053047;28;20317;-85
2021/04/08 00:15:21;;;;;;;;;;;;;;;;;;5037603;28;19928;-85
2021/04/08 00:17:46;;;;;;;;;;;;;;;;;;5033065;28;20336;-86
2021/04/08 00:20:16;;;;;;;;;;;;;;;;;;5016427;28;19909;-86
2021/04/08 00:22:42;;;;;;;;;;;;;;;;;;5016347;28;19909;-86
2021/04/08 00:25:08;;;;;;;;;;;;;;;;;;5032738;28;19909;-85
2021/04/08 00:27:33;;;;;;;;;;;;;;;;;;5000176;28;19932;-86
2021/04/08 00:29:59;;;;;;;;;;;;;;;;;;5026913;28;19912;-85
2021/04/08 00:32:24;;;;;;;;;;;;;;;;;;5052683;28;20002;-86
2021/04/08 00:34:49;;;;;;;;;;;;;;;;;;5036288;28;20369;-86
2021/04/08 00:37:15;;;;;;;;;;;;;;;;;;5036051;28;19909;-86
2021/04/08 00:39:40;;;;;;;;;;;;;;;;;;5052465;28;20004;-86
2021/04/08 00:42:05;;;;;;;;;;;;;;;;;;5052129;28;20302;-86
2021/04/08 00:44:31;;;;;;;;;;;;;;;;;;5035764;28;19920;-86
2021/04/08 00:46:56;;;;;;;;;;;;;;;;;;5052438;28;19908;-86
2021/04/08 00:49:21;;;;;;;;;;;;;;;;;;5035873;28;19913;-86
2021/04/08 00:51:46;;;;;;;;;;;;;;;;;;5069425;28;19948;-86
2021/04/08 00:54:12;;;;;;;;;;;;;;;;;;5052325;28;19916;-84
2021/04/08 00:56:37;;;;;;;;;;;;;;;;;;5068860;28;20015;-84
2021/04/08 00:59:02;;;;;;;;;;;;;;;;;;5051933;28;19955;-84
2021/04/08 01:01:29;;;;;;;;;;;;;;;;;;5035299;28;19915;-84
2021/04/08 01:03:54;;;;;;;;;;;;;;;;;;5035834;28;19916;-83
2021/04/08 01:06:20;;;;;;;;;;;;;;;;;;5019036;28;19913;-84
2021/04/08 01:08:45;;;;;;;;;;;;;;;;;;5019183;28;19913;-84
2021/04/08 01:11:10;;;;;;;;;;;;;;;;;;5018639;28;20050;-84
2021/04/08 01:13:36;;;;;;;;;;;;;;;;;;5035021;28;19966;-83
2021/04/08 01:16:03;;;;;;;;;;;;;;;;;;5035434;28;20338;-83
2021/04/08 01:18:47;;;;;;;;;;;;;;;;;;5035067;28;19919;-83
2021/04/08 01:21:36;;;;;;;;;;;;;;;;;;5051550;28;19912;-84
2021/04/08 01:24:01;;;;;;;;;;;;;;;;;;5024596;28;19908;-84
2021/04/08 01:26:28;;;;;;;;;;;;;;;;;;5051829;28;20432;-83
2021/04/08 01:28:58;;;;;;;;;;;;;;;;;;5018618;28;19912;-83
2021/04/08 01:31:24;;;;;;;;;;;;;;;;;;5051351;28;20309;-83
2021/04/08 01:33:50;;;;;;;;;;;;;;;;;;5018729;28;20286;-86
2021/04/08 01:36:17;;;;;;;;;;;;;;;;;;5018451;28;20381;-85
2021/04/08 01:38:53;;;;;;;;;;;;;;;;;;5034853;28;19909;-85
2021/04/08 01:41:18;;;;;;;;;;;;;;;;;;5034427;28;19912;-86
2021/04/08 01:43:44;;;;;;;;;;;;;;;;;;5034524;28;20020;-85
2021/04/08 01:46:09;;;;;;;;;;;;;;;;;;5034732;28;19919;-85
2021/04/08 01:48:38;;;;;;;;;;;;;;;;;;5035154;28;19908;-86
2021/04/08 01:51:04;;;;;;;;;;;;;;;;;;5018260;28;20371;-85
2021/04/08 01:53:29;;;;;;;;;;;;;;;;;;5018560;28;20466;-86
2021/04/08 01:55:56;;;;;;;;;;;;;;;;;;5034620;28;20011;-86
2021/04/08 01:58:21;;;;;;;;;;;;;;;;;;5050795;28;19909;-84
2021/04/08 02:00:47;;;;;;;;;;;;;;;;;;5017689;28;19915;-83
2021/04/08 02:03:13;;;;;;;;;;;;;;;;;;5017569;28;19916;-83
2021/04/08 02:05:39;;;;;;;;;;;;;;;;;;5034263;28;19909;-84
2021/04/08 02:08:04;;;;;;;;;;;;;;;;;;5051264;28;20053;-83
2021/04/08 02:10:30;;;;;;;;;;;;;;;;;;5034163;28;19916;-83
2021/04/08 02:12:56;;;;;;;;;;;;;;;;;;5017648;28;19920;-83
2021/04/08 02:15:21;;;;;;;;;;;;;;;;;;5034415;28;19916;-83
2021/04/08 02:17:51;;;;;;;;;;;;;;;;;;5034311;28;20343;-84
2021/04/08 02:20:17;;;;;;;;;;;;;;;;;;5034126;28;20011;-84
2021/04/08 02:22:47;;;;;;;;;;;;;;;;;;5034538;28;19958;-84
2021/04/08 02:25:12;;;;;;;;;;;;;;;;;;5050831;28;19909;-84
2021/04/08 02:27:38;;;;;;;;;;;;;;;;;;5050735;28;19908;-84
2021/04/08 02:30:04;;;;;;;;;;;;;;;;;;5015473;28;19909;-84
2021/04/08 02:32:29;;;;;;;;;;;;;;;;;;5035063;28;19913;-84
2021/04/08 02:34:55;;;;;;;;;;;;;;;;;;5018669;28;19916;-83
2021/04/08 02:37:20;;;;;;;;;;;;;;;;;;5018479;28;19931;-84
2021/04/08 02:39:45;;;;;;;;;;;;;;;;;;5034720;28;19916;-83
2021/04/08 02:42:11;;;;;;;;;;;;;;;;;;5018119;28;19966;-84
2021/04/08 02:44:36;;;;;;;;;;;;;;;;;;5034743;28;19913;-83
2021/04/08 02:47:01;;;;;;;;;;;;;;;;;;5034592;28;19916;-83
2021/04/08 02:49:26;;;;;;;;;;;;;;;;;;5034722;28;19967;-84
2021/04/08 02:51:54;;;;;;;;;;;;;;;;;;5034563;28;19916;-83
2021/04/08 02:54:25;;;;;;;;;;;;;;;;;;5034692;28;19913;-84
2021/04/08 02:56:51;;;;;;;;;;;;;;;;;;5034703;28;19915;-85
2021/04/08 02:59:17;;;;;;;;;;;;;;;;;;5051185;28;19913;-85
2021/04/08 03:02:05;;;;;;;;;;;;;;;;;;5039005;28;19959;-86
2021/04/08 03:04:31;;;;;;;;;;;;;;;;;;5037184;28;20371;-86
2021/04/08 03:06:56;;;;;;;;;;;;;;;;;;5021259;28;19962;-86
2021/04/08 03:09:37;;;;;;;;;;;;;;;;;;5037297;28;19940;-85
2021/04/08 03:12:06;;;;;;;;;;;;;;;;;;5021040;28;20424;-86
2021/04/08 03:14:37;;;;;;;;;;;;;;;;;;5017626;28;19917;-86
2021/04/08 03:17:02;;;;;;;;;;;;;;;;;;5034423;28;19999;-86
2021/04/08 03:19:27;;;;;;;;;;;;;;;;;;5017468;28;20047;-85
2021/04/08 03:21:52;;;;;;;;;;;;;;;;;;5017667;28;19935;-85
2021/04/08 03:24:18;;;;;;;;;;;;;;;;;;5033756;28;19916;-86
2021/04/08 03:26:43;;;;;;;;;;;;;;;;;;5033986;28;20385;-85
2021/04/08 03:29:08;;;;;;;;;;;;;;;;;;5020521;28;20449;-85
2021/04/08 03:31:34;;;;;;;;;;;;;;;;;;5070360;28;19923;-85
2021/04/08 03:33:59;;;;;;;;;;;;;;;;;;5070440;28;20011;-85
2021/04/08 03:36:24;;;;;;;;;;;;;;;;;;5037375;28;19977;-86
2021/04/08 03:38:49;;;;;;;;;;;;;;;;;;5053556;28;19915;-86
2021/04/08 03:41:15;;;;;;;;;;;;;;;;;;5053135;28;19913;-86
2021/04/08 03:43:40;;;;;;;;;;;;;;;;;;5053399;28;19913;-86
2021/04/08 03:46:05;;;;;;;;;;;;;;;;;;5054025;28;20362;-85
2021/04/08 03:48:31;;;;;;;;;;;;;;;;;;5053824;28;20347;-86
2021/04/08 03:50:56;;;;;;;;;;;;;;;;;;5053590;28;19916;-86
2021/04/08 03:53:21;;;;;;;;;;;;;;;;;;5036480;28;19913;-86
2021/04/08 03:55:47;;;;;;;;;;;;;;;;;;5053691;28;19915;-86
2021/04/08 03:58:13;;;;;;;;;;;;;;;;;;5036827;28;19999;-87
2021/04/08 04:00:38;;;;;;;;;;;;;;;;;;5036274;28;20007;-86
2021/04/08 04:03:04;;;;;;;;;;;;;;;;;;5033552;28;19913;-87
2021/04/08 04:05:29;;;;;;;;;;;;;;;;;;5016876;28;19916;-86
2021/04/08 04:07:55;;;;;;;;;;;;;;;;;;5016945;28;19920;-87
2021/04/08 04:10:21;;;;;;;;;;;;;;;;;;5016580;28;20339;-87
2021/04/08 04:12:50;;;;;;;;;;;;;;;;;;5016945;28;19913;-86
2021/04/08 04:15:15;;;;;;;;;;;;;;;;;;5027293;28;20282;-86
2021/04/08 04:17:41;;;;;;;;;;;;;;;;;;5016936;28;19909;-86
2021/04/08 04:20:06;;;;;;;;;;;;;;;;;;5033280;28;19909;-86
2021/04/08 04:22:32;;;;;;;;;;;;;;;;;;5032769;28;19916;-86
2021/04/08 04:24:57;;;;;;;;;;;;;;;;;;5016790;28;19913;-86
2021/04/08 04:27:22;;;;;;;;;;;;;;;;;;5016297;28;19959;-86
2021/04/08 04:29:48;;;;;;;;;;;;;;;;;;5022217;28;19946;-85
2021/04/08 04:32:13;;;;;;;;;;;;;;;;;;5032868;28;20394;-86
2021/04/08 04:34:42;;;;;;;;;;;;;;;;;;5016400;28;19913;-87
2021/04/08 04:37:07;;;;;;;;;;;;;;;;;;5033233;28;20363;-87
2021/04/08 04:39:32;;;;;;;;;;;;;;;;;;5032887;28;19959;-87
2021/04/08 04:41:58;;;;;;;;;;;;;;;;;;5032311;28;19916;-87
2021/04/08 04:44:23;;;;;;;;;;;;;;;;;;5016204;28;19956;-86
2021/04/08 04:46:48;;;;;;;;;;;;;;;;;;5016235;28;19913;-87
2021/04/08 04:49:14;;;;;;;;;;;;;;;;;;5049137;28;20382;-86
2021/04/08 04:51:39;;;;;;;;;;;;;;;;;;5015825;28;19913;-86
2021/04/08 04:54:04;;;;;;;;;;;;;;;;;;5015507;28;19913;-87
2021/04/08 04:56:29;;;;;;;;;;;;;;;;;;5015912;28;19909;-86
2021/04/08 04:58:55;;;;;;;;;;;;;;;;;;5016045;28;20051;-86
2021/04/08 05:01:20;;;;;;;;;;;;;;;;;;5050379;28;20267;-86
2021/04/08 05:03:45;;;;;;;;;;;;;;;;;;5035524;28;19934;-86
2021/04/08 05:06:10;;;;;;;;;;;;;;;;;;5035396;28;19915;-85
2021/04/08 05:08:36;;;;;;;;;;;;;;;;;;5035522;28;20295;-84
2021/04/08 05:11:01;;;;;;;;;;;;;;;;;;5018546;28;19909;-84
2021/04/08 05:13:26;;;;;;;;;;;;;;;;;;5018990;28;19912;-84
2021/04/08 05:15:53;;;;;;;;;;;;;;;;;;5018903;28;19913;-85
2021/04/08 05:18:18;;;;;;;;;;;;;;;;;;5019263;28;19915;-85
2021/04/08 05:20:43;;;;;;;;;;;;;;;;;;5018527;28;19999;-84
2021/04/08 05:23:08;;;;;;;;;;;;;;;;;;5018875;28;20336;-85
2021/04/08 05:25:34;;;;;;;;;;;;;;;;;;5018581;28;19919;-85
2021/04/08 05:27:59;;;;;;;;;;;;;;;;;;5035495;28;20262;-84
2021/04/08 05:30:24;;;;;;;;;;;;;;;;;;5014830;28;19963;-84
2021/04/08 05:32:50;;;;;;;;;;;;;;;;;;5015463;28;19943;-84
2021/04/08 05:35:15;;;;;;;;;;;;;;;;;;5015103;28;19916;-84
2021/04/08 05:37:40;;;;;;;;;;;;;;;;;;5015303;28;20007;-84
2021/04/08 05:40:06;;;;;;;;;;;;;;;;;;5015113;28;19909;-86
2021/04/08 05:42:31;;;;;;;;;;;;;;;;;;5031330;28;20367;-86
2021/04/08 05:44:56;;;;;;;;;;;;;;;;;;5031501;28;19920;-86
2021/04/08 05:47:21;;;;;;;;;;;;;;;;;;5031473;28;20334;-87
2021/04/08 05:49:47;;;;;;;;;;;;;;;;;;5031418;28;20363;-87
2021/04/08 05:52:12;;;;;;;;;;;;;;;;;;5031676;28;19913;-86
2021/04/08 05:54:37;;;;;;;;;;;;;;;;;;5048455;28;19909;-87
2021/04/08 05:57:03;;;;;;;;;;;;;;;;;;5015155;28;20441;-86
2021/04/08 05:59:28;;;;;;;;;;;;;;;;;;5015035;28;19916;-87
2021/04/08 06:01:54;;;;;;;;;;;;;;;;;;5014925;28;19917;-87
2021/04/08 06:04:19;;;;;;;;;;;;;;;;;;5048377;28;19913;-87
2021/04/08 06:06:45;;;;;;;;;;;;;;;;;;5034565;28;20288;-87
2021/04/08 06:09:10;;;;;;;;;;;;;;;;;;5034558;28;19966;-86
2021/04/08 06:11:35;;;;;;;;;;;;;;;;;;5018165;28;19915;-87
2021/04/08 06:14:00;;;;;;;;;;;;;;;;;;5034470;28;19913;-87
2021/04/08 06:16:26;;;;;;;;;;;;;;;;;;5034585;28;19908;-87
2021/04/08 06:18:51;;;;;;;;;;;;;;;;;;5034549;28;20375;-86
2021/04/08 06:21:16;;;;;;;;;;;;;;;;;;5034288;28;19915;-86
2021/04/08 06:23:41;;;;;;;;;;;;;;;;;;5018144;28;20430;-86
2021/04/08 06:26:07;;;;;;;;;;;;;;;;;;5034059;28;19908;-86
2021/04/08 06:28:32;;;;;;;;;;;;;;;;;;5034431;28;19936;-87
2021/04/08 06:30:57;;;;;;;;;;;;;;;;;;5034227;28;20281;-87
2021/04/08 06:33:22;;;;;;;;;;;;;;;;;;5050719;28;19912;-86
2021/04/08 06:35:48;;;;;;;;;;;;;;;;;;5051171;28;19908;-85
2021/04/08 06:38:13;;;;;;;;;;;;;;;;;;5050765;28;19938;-87
2021/04/08 06:40:38;;;;;;;;;;;;;;;;;;5067517;28;19915;-88
2021/04/08 06:43:07;;;;;;;;;;;;;;;;;;5051060;28;19913;-87
2021/04/08 06:45:33;;;;;;;;;;;;;;;;;;5034398;28;19913;-88
2021/04/08 06:48:01;;;;;;;;;;;;;;;;;;5050865;28;19915;-86
2021/04/08 06:50:29;;;;;;;;;;;;;;;;;;5067703;28;19912;-86
2021/04/08 06:52:54;;;;;;;;;;;;;;;;;;5050878;28;19917;-88
2021/04/08 06:55:19;;;;;;;;;;;;;;;;;;5050658;28;19939;-87
2021/04/08 06:57:45;;;;;;;;;;;;;;;;;;5034349;28;19920;-86
2021/04/08 07:00:11;;;;;;;;;;;;;;;;;;5034016;28;19916;-86
2021/04/08 07:02:37;;;;;;;;;;;;;;;;;;5050203;28;20327;-87
2021/04/08 07:05:06;;;;;;;;;;;;;;;;;;5017537;28;20050;-86
2021/04/08 07:07:31;;;;;;;;;;;;;;;;;;5017639;28;19916;-86
2021/04/08 07:09:56;;;;;;;;;;;;;;;;;;5017218;28;19909;-85
2021/04/08 07:12:22;;;;;;;;;;;;;;;;;;5017280;28;19919;-85
2021/04/08 07:14:47;;;;;;;;;;;;;;;;;;5017399;28;20011;-86
2021/04/08 07:17:12;;;;;;;;;;;;;;;;;;5036415;28;19959;-85
2021/04/08 07:19:38;;;;;;;;;;;;;;;;;;5020895;28;19958;-86
2021/04/08 07:22:03;;;;;;;;;;;;;;;;;;5021136;28;19909;-86
2021/04/08 07:24:29;;;;;;;;;;;;;;;;;;5037048;28;19919;-85
2021/04/08 07:26:54;;;;;;;;;;;;;;;;;;5037450;28;19923;-85
2021/04/08 07:29:20;;;;;;;;;;;;;;;;;;5037104;28;20007;-86
2021/04/08 07:31:45;;;;;;;;;;;;;;;;;;5020078;28;19913;-85
2021/04/08 07:34:10;;;;;;;;;;;;;;;;;;5037192;28;19908;-85
2021/04/08 07:36:36;;;;;;;;;;;;;;;;;;5020796;28;20396;-85
2021/04/08 07:39:03;;;;;;;;;;;;;;;;;;5037275;28;19916;-85
2021/04/08 07:41:29;;;;;;;;;;;;;;;;;;5020174;28;19912;-86
2021/04/08 07:43:58;;;;;;;;;;;;;;;;;;5020759;28;20062;-86
2021/04/08 07:46:32;;;;;;;;;;;;;;;;;;5020318;28;19973;-86
2021/04/08 07:48:58;;;;;;;;;;;;;;;;;;5053877;28;19915;-86
2021/04/08 07:51:30;;;;;;;;;;;;;;;;;;5020509;28;19912;-87
2021/04/08 07:54:14;;;;;;;;;;;;;;;;;;5020526;28;19920;-88
2021/04/08 07:56:39;;;;;;;;;;;;;;;;;;5054045;28;19975;-88
2021/04/08 07:59:37;;;;;;;;;;;;;;;;;;5020766;28;19952;-88
2021/04/08 08:02:03;;;;;;;;;;;;;;;;;;5042304;28;20333;-88
2021/04/08 08:04:28;;;;;;;;;;;;;;;;;;5020932;28;19909;-88
2021/04/08 08:06:54;;;;;;;;;;;;;;;;;;5037271;28;19912;-88
2021/04/08 08:09:23;;;;;;;;;;;;;;;;;;5020729;28;19962;-89
2021/04/08 08:11:49;;;;;;;;;;;;;;;;;;5020887;28;19940;-89
2021/04/08 08:14:16;;;;;;;;;;;;;;;;;;5020515;28;19921;-88
2021/04/08 08:16:42;;;;;;;;;;;;;;;;;;5020936;28;19955;-89
2021/04/08 08:19:07;;;;;;;;;;;;;;;;;;5020858;28;19931;-89
2021/04/08 08:21:35;;;;;;;;;;;;;;;;;;5037053;28;19908;-88
2021/04/08 08:24:04;;;;;;;;;;;;;;;;;;5021166;28;19909;-89
2021/04/08 08:26:39;;;;;;;;;;;;;;;;;;5020609;28;19951;-89
2021/04/08 08:29:10;;;;;;;;;;;;;;;;;;5032361;28;19909;-89
2021/04/08 08:31:35;;;;;;;;;;;;;;;;;;5050332;28;19913;-89
2021/04/08 08:34:03;;;;;;;;;;;;;;;;;;5050426;28;19939;-89
2021/04/08 08:36:32;;;;;;;;;;;;;;;;;;5049986;28;20038;-88
2021/04/08 08:38:58;;;;;;;;;;;;;;;;;;5033522;28;19932;-89
2021/04/08 08:41:23;;;;;;;;;;;;;;;;;;5016313;28;20294;-88
2021/04/08 08:43:50;;;;;;;;;;;;;;;;;;5016420;28;19917;-87
2021/04/08 08:46:16;;;;;;;;;;;;;;;;;;5032889;28;19921;-88
2021/04/08 08:48:41;;;;;;;;;;;;;;;;;;5033538;28;19908;-88
2021/04/08 08:51:06;;;;;;;;;;;;;;;;;;5032875;28;19947;-89
2021/04/08 08:53:32;;;;;;;;;;;;;;;;;;5050112;28;19916;-87
2021/04/08 08:55:57;;;;;;;;;;;;;;;;;;5016492;28;20385;-88
2021/04/08 08:58:22;;;;;;;;;;;;;;;;;;5016313;28;19909;-88
2021/04/08 09:00:47;;;;;;;;;;;;;;;;;;5032583;28;19909;-88
2021/04/08 09:03:13;;;;;;;;;;;;;;;;;;5035779;28;19939;-88
2021/04/08 09:05:38;;;;;;;;;;;;;;;;;;5019489;28;20267;-87
2021/04/08 09:08:11;;;;;;;;;;;;;;;;;;5019403;28;19909;-88
2021/04/08 09:10:39;;;;;;;;;;;;;;;;;;5052137;28;19966;-88
2021/04/08 09:13:04;;;;;;;;;;;;;;;;;;5019311;28;20057;-85
2021/04/08 09:15:30;;;;;;;;;;;;;;;;;;5035628;28;19983;-86
2021/04/08 09:17:59;;;;;;;;;;;;;;;;;;5036101;28;19908;-86
2021/04/08 09:20:24;;;;;;;;;;;;;;;;;;5035846;28;19915;-87
2021/04/08 09:22:56;;;;;;;;;;;;;;;;;;5036270;28;19912;-88
2021/04/08 09:25:22;;;;;;;;;;;;;;;;;;5019295;28;20301;-87
2021/04/08 09:27:51;;;;;;;;;;;;;;;;;;5019110;28;19916;-87
2021/04/08 09:33:14;;;;;;;;;;;;;;;;;;5028984;28;20326;-86
2021/04/08 09:35:42;;;;;;;;;;;;;;;;;;5015653;28;19909;-86
2021/04/08 09:38:10;;;;;;;;;;;;;;;;;;5015602;28;19916;-85
2021/04/08 09:40:43;;;;;;;;;;;;;;;;;;5030926;28;19917;-86
2021/04/08 09:43:10;;;;;;;;;;;;;;;;;;5048064;28;19920;-87
2021/04/08 09:45:35;;;;;;;;;;;;;;;;;;5015267;28;20006;-84
2021/04/08 09:48:07;;;;;;;;;;;;;;;;;;5014949;28;19960;-86
2021/04/08 09:50:43;;;;;;;;;;;;;;;;;;5015019;28;20021;-86
2021/04/08 09:53:08;;;;;;;;;;;;;;;;;;5015038;28;19959;-86
2021/04/08 09:55:33;;;;;;;;;;;;;;;;;;5014654;28;19951;-87
2021/04/08 09:58:02;;;;;;;;;;;;;;;;;;5031392;28;20052;-87
2021/04/08 10:00:27;;;;;;;;;;;;;;;;;;5014938;28;19951;-87
2021/04/08 10:02:56;;;;;;;;;;;;;;;;;;5034551;28;19955;-87
2021/04/08 10:05:22;;;;;;;;;;;;;;;;;;5018275;28;19914;-87
2021/04/08 10:07:48;;;;;;;;;;;;;;;;;;5018369;28;19932;-85
2021/04/08 10:10:13;;;;;;;;;;;;;;;;;;5017885;28;20374;-84
2021/04/08 10:12:38;;;;;;;;;;;;;;;;;;5017848;28;19999;-85
2021/04/08 10:15:04;;;;;;;;;;;;;;;;;;5017999;28;19921;-85
2021/04/08 10:17:33;;;;;;;;;;;;;;;;;;5035417;28;20010;-86
2021/04/08 10:19:58;;;;;;;;;;;;;;;;;;5018727;28;19916;-85
2021/04/08 10:22:23;;;;;;;;;;;;;;;;;;5018325;28;19909;-85
2021/04/08 10:24:48;;;;;;;;;;;;;;;;;;5034362;28;19919;-86
2021/04/08 10:27:19;;;;;;;;;;;;;;;;;;5018537;28;19967;-86
2021/04/08 10:29:45;;;;;;;;;;;;;;;;;;5014821;28;19913;-86
2021/04/08 10:32:10;;;;;;;;;;;;;;;;;;5014934;28;20426;-86
2021/04/08 10:34:40;;;;;;;;;;;;;;;;;;5031563;28;19932;-86
2021/04/08 10:37:07;;;;;;;;;;;;;;;;;;5014580;28;19929;-85
2021/04/08 10:39:36;;;;;;;;;;;;;;;;;;5014774;28;20302;-85
2021/04/08 10:42:07;;;;;;;;;;;;;;;;;;5014530;28;19995;-85
2021/04/08 10:44:39;;;;;;;;;;;;;;;;;;5014450;28;19939;-85
2021/04/08 10:47:14;;;;;;;;;;;;;;;;;;5014493;28;19920;-85
2021/04/08 10:49:43;;;;;;;;;;;;;;;;;;5031125;28;19909;-85
2021/04/08 10:52:09;;;;;;;;;;;;;;;;;;5017243;28;19960;-85
2021/04/08 10:54:37;;;;;;;;;;;;;;;;;;5017982;28;20294;-84
2021/04/08 10:57:02;;;;;;;;;;;;;;;;;;5034832;28;19909;-84
2021/04/08 10:59:27;;;;;;;;;;;;;;;;;;5018332;28;19916;-85
2021/04/08 11:01:53;;;;;;;;;;;;;;;;;;5034320;28;19909;-85
2021/04/08 11:04:18;;;;;;;;;;;;;;;;;;5021512;28;19990;-85
2021/04/08 11:06:44;;;;;;;;;;;;;;;;;;5021437;28;19908;-85
2021/04/08 11:09:09;;;;;;;;;;;;;;;;;;5021111;28;20359;-85
2021/04/08 11:11:35;;;;;;;;;;;;;;;;;;5037602;28;19924;-85
2021/04/08 11:14:01;;;;;;;;;;;;;;;;;;5018165;28;19913;-84
2021/04/08 11:16:26;;;;;;;;;;;;;;;;;;5034521;28;20318;-84
2021/04/08 11:18:51;;;;;;;;;;;;;;;;;;5034649;28;19909;-84
2021/04/08 11:21:17;;;;;;;;;;;;;;;;;;5034057;28;19909;-85
2021/04/08 11:23:42;;;;;;;;;;;;;;;;;;5034218;28;19909;-85
2021/04/08 11:26:07;;;;;;;;;;;;;;;;;;5034089;28;19960;-84
2021/04/08 11:28:33;;;;;;;;;;;;;;;;;;5034260;28;19916;-84
2021/04/08 11:31:09;;;;;;;;;;;;;;;;;;5037238;28;19908;-85
2021/04/08 11:33:35;;;;;;;;;;;;;;;;;;5037389;28;19960;-84
2021/04/08 11:36:00;;;;;;;;;;;;;;;;;;5053866;28;19987;-85
2021/04/08 11:38:25;;;;;;;;;;;;;;;;;;5037151;28;19915;-85
2021/04/08 11:40:52;;;;;;;;;;;;;;;;;;5054520;28;19962;-87
2021/04/08 11:43:25;;;;;;;;;;;;;;;;;;5037525;28;20062;-86
2021/04/08 11:45:51;;;;;;;;;;;;;;;;;;5071168;28;19963;-86
2021/04/08 11:48:18;;;;;;;;;;;;;;;;;;5053924;28;19909;-86
2021/04/08 11:50:45;;;;;;;;;;;;;;;;;;5053588;28;19909;-86
2021/04/08 11:53:18;;;;;;;;;;;;;;;;;;5037020;28;19912;-85
2021/04/08 11:55:44;;;;;;;;;;;;;;;;;;5037136;28;19915;-85
2021/04/08 11:58:23;;;;;;;;;;;;;;;;;;5053914;28;19913;-85
2021/04/08 12:00:48;;;;;;;;;;;;;;;;;;5036635;28;19908;-86
2021/04/08 12:03:18;;;;;;;;;;;;;;;;;;5053553;28;20263;-87
2021/04/08 12:05:43;;;;;;;;;;;;;;;;;;5020509;28;19952;-85
2021/04/08 12:08:08;;;;;;;;;;;;;;;;;;5020693;28;20343;-86
2021/04/08 12:10:34;;;;;;;;;;;;;;;;;;5020186;28;20282;-85
2021/04/08 12:13:00;;;;;;;;;;;;;;;;;;5020035;28;19962;-84
2021/04/08 12:15:45;;;;;;;;;;;;;;;;;;5020011;28;20286;-84
2021/04/08 12:18:13;;;;;;;;;;;;;;;;;;5020187;28;19913;-84
2021/04/08 12:20:38;;;;;;;;;;;;;;;;;;5036253;28;20308;-84
2021/04/08 12:23:07;;;;;;;;;;;;;;;;;;5036510;28;19995;-84
2021/04/08 12:25:38;;;;;;;;;;;;;;;;;;5036382;28;20310;-84
2021/04/08 12:28:04;;;;;;;;;;;;;;;;;;5019730;28;19908;-84
2021/04/08 12:30:29;;;;;;;;;;;;;;;;;;5016054;28;20260;-84
2021/04/08 12:32:54;;;;;;;;;;;;;;;;;;5016591;28;19917;-84
2021/04/08 12:35:22;;;;;;;;;;;;;;;;;;5016419;28;20386;-84
2021/04/08 12:37:47;;;;;;;;;;;;;;;;;;5033066;28;19947;-84
2021/04/08 12:40:12;;;;;;;;;;;;;;;;;;5015962;28;19908;-84
2021/04/08 12:42:38;;;;;;;;;;;;;;;;;;5015850;28;19913;-82
2021/04/08 12:45:04;;;;;;;;;;;;;;;;;;5032832;28;19920;-83
2021/04/08 12:47:29;;;;;;;;;;;;;;;;;;5015915;28;20278;-84
2021/04/08 12:49:55;;;;;;;;;;;;;;;;;;5032450;28;19923;-84
2021/04/08 12:52:20;;;;;;;;;;;;;;;;;;5049095;28;19909;-84
2021/04/08 12:54:45;;;;;;;;;;;;;;;;;;5032572;28;20003;-83
2021/04/08 12:57:11;;;;;;;;;;;;;;;;;;5032323;28;20264;-83
2021/04/08 12:59:37;;;;;;;;;;;;;;;;;;5015567;28;19909;-83
2021/04/08 13:02:03;;;;;;;;;;;;;;;;;;5015654;28;19909;-83
2021/04/08 13:04:28;;;;;;;;;;;;;;;;;;5018057;28;19915;-83
2021/04/08 13:06:53;;;;;;;;;;;;;;;;;;5052107;28;19908;-83
2021/04/08 13:09:18;;;;;;;;;;;;;;;;;;5035339;28;19987;-83
2021/04/08 13:11:44;;;;;;;;;;;;;;;;;;5018726;28;19909;-83
2021/04/08 13:14:09;;;;;;;;;;;;;;;;;;5018465;28;19916;-83
2021/04/08 13:16:34;;;;;;;;;;;;;;;;;;5051869;28;20395;-83
2021/04/08 13:19:00;;;;;;;;;;;;;;;;;;5051794;28;19913;-83
2021/04/08 13:21:25;;;;;;;;;;;;;;;;;;5035349;28;20375;-83
2021/04/08 13:23:51;;;;;;;;;;;;;;;;;;5052379;28;19954;-83
2021/04/08 13:26:17;;;;;;;;;;;;;;;;;;5034932;28;19908;-82
2021/04/08 13:28:42;;;;;;;;;;;;;;;;;;5051453;28;19920;-83
2021/04/08 13:31:07;;;;;;;;;;;;;;;;;;5034656;28;19935;-83
2021/04/08 13:33:33;;;;;;;;;;;;;;;;;;5051567;28;19912;-83
2021/04/08 13:35:58;;;;;;;;;;;;;;;;;;5051698;28;19909;-82
2021/04/08 13:38:23;;;;;;;;;;;;;;;;;;5034881;28;20382;-83
2021/04/08 13:40:49;;;;;;;;;;;;;;;;;;5018274;28;19962;-83
2021/04/08 13:43:14;;;;;;;;;;;;;;;;;;5034592;28;19923;-83
2021/04/08 13:45:40;;;;;;;;;;;;;;;;;;5018192;28;19920;-82
2021/04/08 13:48:05;;;;;;;;;;;;;;;;;;5034701;28;19919;-83
2021/04/08 13:50:30;;;;;;;;;;;;;;;;;;5051568;28;19915;-82
2021/04/08 13:52:56;;;;;;;;;;;;;;;;;;5034755;28;19912;-83
2021/04/08 13:55:21;;;;;;;;;;;;;;;;;;5051191;28;20385;-83
2021/04/08 13:57:46;;;;;;;;;;;;;;;;;;5051125;28;19909;-83
2021/04/08 14:00:13;;;;;;;;;;;;;;;;;;5051103;28;19909;-83
2021/04/08 14:02:39;;;;;;;;;;;;;;;;;;5050754;28;19908;-83
2021/04/08 14:05:05;;;;;;;;;;;;;;;;;;5051065;28;19915;-82
2021/04/08 14:07:30;;;;;;;;;;;;;;;;;;5050941;28;20004;-82
2021/04/08 14:09:55;;;;;;;;;;;;;;;;;;5034509;28;20019;-83
2021/04/08 14:12:21;;;;;;;;;;;;;;;;;;5034079;28;19924;-83
2021/04/08 14:14:46;;;;;;;;;;;;;;;;;;5034479;28;19919;-83
2021/04/08 14:17:11;;;;;;;;;;;;;;;;;;5050668;28;19912;-83
2021/04/08 14:19:36;;;;;;;;;;;;;;;;;;5051168;28;19916;-82
2021/04/08 14:22:02;;;;;;;;;;;;;;;;;;5033906;28;19908;-82
2021/04/08 14:24:27;;;;;;;;;;;;;;;;;;5051115;28;19953;-82
2021/04/08 14:26:53;;;;;;;;;;;;;;;;;;5050233;28;20377;-82
2021/04/08 14:29:18;;;;;;;;;;;;;;;;;;5050660;28;19909;-82
2021/04/08 14:31:43;;;;;;;;;;;;;;;;;;5016913;28;19913;-82
2021/04/08 14:34:09;;;;;;;;;;;;;;;;;;5050903;28;19908;-81
2021/04/08 14:36:34;;;;;;;;;;;;;;;;;;5017866;28;20370;-82
2021/04/08 14:38:59;;;;;;;;;;;;;;;;;;5017710;28;19912;-81
2021/04/08 14:41:24;;;;;;;;;;;;;;;;;;5050493;28;20329;-82
2021/04/08 14:43:50;;;;;;;;;;;;;;;;;;5033831;28;20006;-82
2021/04/08 14:46:15;;;;;;;;;;;;;;;;;;5033502;28;19943;-82
2021/04/08 14:48:40;;;;;;;;;;;;;;;;;;5034164;28;19944;-81
2021/04/08 14:51:05;;;;;;;;;;;;;;;;;;5050400;28;19908;-82
2021/04/08 14:53:31;;;;;;;;;;;;;;;;;;5034137;28;19931;-81
2021/04/08 14:55:56;;;;;;;;;;;;;;;;;;5034078;28;20028;-81
2021/04/08 14:58:21;;;;;;;;;;;;;;;;;;5034091;28;19913;-82
2021/04/08 15:00:47;;;;;;;;;;;;;;;;;;5033497;28;19908;-81
2021/04/08 15:03:12;;;;;;;;;;;;;;;;;;5050482;28;20359;-82
2021/04/08 15:05:37;;;;;;;;;;;;;;;;;;5050679;28;20358;-81
2021/04/08 15:08:03;;;;;;;;;;;;;;;;;;5050418;28;19974;-81
2021/04/08 15:10:29;;;;;;;;;;;;;;;;;;5033745;28;19915;-81
2021/04/08 15:12:54;;;;;;;;;;;;;;;;;;5017392;28;20370;-81
2021/04/08 15:15:19;;;;;;;;;;;;;;;;;;5016801;28;19916;-81
2021/04/08 15:17:46;;;;;;;;;;;;;;;;;;5033924;28;19916;-81
2021/04/08 15:20:11;;;;;;;;;;;;;;;;;;5033976;28;19915;-81
2021/04/08 15:22:37;;;;;;;;;;;;;;;;;;5033560;28;19909;-81
2021/04/08 15:25:05;;;;;;;;;;;;;;;;;;5033643;28;19909;-81
2021/04/08 15:27:30;;;;;;;;;;;;;;;;;;5033448;28;19920;-81
2021/04/08 15:29:55;;;;;;;;;;;;;;;;;;5049798;28;20277;-81
2021/04/08 15:32:21;;;;;;;;;;;;;;;;;;5050636;28;19917;-81
2021/04/08 15:34:46;;;;;;;;;;;;;;;;;;5050321;28;19908;-81
2021/04/08 15:37:11;;;;;;;;;;;;;;;;;;5051242;28;19908;-81
2021/04/08 15:39:37;;;;;;;;;;;;;;;;;;5054240;28;19916;-82
2021/04/08 15:42:03;;;;;;;;;;;;;;;;;;5037015;28;19913;-83
2021/04/08 15:44:28;;;;;;;;;;;;;;;;;;5036779;28;19912;-83
2021/04/08 15:46:54;;;;;;;;;;;;;;;;;;5020438;28;19915;-83
2021/04/08 15:49:19;;;;;;;;;;;;;;;;;;5053490;28;20332;-82
2021/04/08 15:51:44;;;;;;;;;;;;;;;;;;5053500;28;20290;-82
2021/04/08 15:54:09;;;;;;;;;;;;;;;;;;5036638;28;20007;-82
2021/04/08 15:56:35;;;;;;;;;;;;;;;;;;5036902;28;19962;-81
2021/04/08 15:59:00;;;;;;;;;;;;;;;;;;5053279;28;20321;-81
2021/04/08 16:01:25;;;;;;;;;;;;;;;;;;5036175;28;19958;-81
2021/04/08 16:03:51;;;;;;;;;;;;;;;;;;5036816;28;20274;-81
2021/04/08 16:06:16;;;;;;;;;;;;;;;;;;5020116;28;19958;-82
2021/04/08 16:08:42;;;;;;;;;;;;;;;;;;5052985;28;19959;-81
2021/04/08 16:11:07;;;;;;;;;;;;;;;;;;5019747;28;19912;-81
2021/04/08 16:13:32;;;;;;;;;;;;;;;;;;5019390;28;20385;-81
2021/04/08 16:15:58;;;;;;;;;;;;;;;;;;5036547;28;19913;-83
2021/04/08 16:18:23;;;;;;;;;;;;;;;;;;5052947;28;19909;-81
2021/04/08 16:20:49;;;;;;;;;;;;;;;;;;5019982;28;19909;-81
2021/04/08 16:23:15;;;;;;;;;;;;;;;;;;5052835;28;20402;-80
2021/04/08 16:25:40;;;;;;;;;;;;;;;;;;5019907;28;20362;-81
2021/04/08 16:28:05;;;;;;;;;;;;;;;;;;5019450;28;19909;-80
2021/04/08 16:30:31;;;;;;;;;;;;;;;;;;5032289;28;20276;-81
2021/04/08 16:32:56;;;;;;;;;;;;;;;;;;5016522;28;19909;-81
2021/04/08 16:35:21;;;;;;;;;;;;;;;;;;5032818;28;20015;-81
2021/04/08 16:37:47;;;;;;;;;;;;;;;;;;5049567;28;19913;-81
2021/04/08 16:40:12;;;;;;;;;;;;;;;;;;5032695;28;19916;-81
2021/04/08 16:42:37;;;;;;;;;;;;;;;;;;5032169;28;20429;-81